createdAt,value
2022-09-10T00:01:30.796Z,28.02
2022-09-10T00:03:57.930Z,28.26
2022-09-10T00:06:27.655Z,28.43
2022-09-10T00:08:58.438Z,28.31
2022-09-10T00:11:26.805Z,28.00
2022-09-10T00:13:53.353Z,27.55
2022-09-10T00:16:19.985Z,27.62
2022-09-10T00:18:47.816Z,27.51
2022-09-10T00:21:17.866Z,27.63
2022-09-10T00:23:47.215Z,27.65
2022-09-10T00:26:19.023Z,27.48
2022-09-10T00:28:46.419Z,27.86
2022-09-10T00:31:13.697Z,27.71
2022-09-10T00:33:41.654Z,27.77
2022-09-10T00:36:29.355Z,27.32
2022-09-10T00:38:59.209Z,27.69
2022-09-10T00:41:26.695Z,28.01
2022-09-10T00:44:02.330Z,28.07
2022-09-10T00:46:42.632Z,27.82
2022-09-10T00:49:14.635Z,28.15
2022-09-10T00:51:42.040Z,28.28
2022-09-10T00:54:08.684Z,28.04
2022-09-10T00:56:35.363Z,28.20
2022-09-10T00:59:03.865Z,28.48
2022-09-10T01:01:33.442Z,28.55
2022-09-10T01:04:01.257Z,28.47
2022-09-10T01:06:28.576Z,28.65
2022-09-10T01:08:55.352Z,28.20
2022-09-10T01:11:38.433Z,28.34
2022-09-10T01:14:24.200Z,28.32
2022-09-10T01:17:06.289Z,28.50
2022-09-10T01:20:12.063Z,28.42
2022-09-10T01:23:03.947Z,28.66
2022-09-10T01:25:43.818Z,28.31
2022-09-10T01:28:19.967Z,28.44
2022-09-10T01:30:53.160Z,28.23
2022-09-10T01:33:34.097Z,28.22
2022-09-10T01:36:06.104Z,28.24
2022-09-10T01:38:35.680Z,27.90
2022-09-10T01:41:04.833Z,27.92
2022-09-10T01:43:38.043Z,28.00
2022-09-10T01:46:25.204Z,28.07
2022-09-10T01:49:31.360Z,28.26
2022-09-10T01:52:21.820Z,28.50
2022-09-10T01:55:07.115Z,28.53
2022-09-10T01:57:55.569Z,28.48
2022-09-10T02:00:28.067Z,27.90
2022-09-10T02:03:04.369Z,28.02
2022-09-10T02:05:36.298Z,27.74
2022-09-10T02:08:11.088Z,27.93
2022-09-10T02:11:03.407Z,27.77
2022-09-10T02:13:34.978Z,28.04
2022-09-10T02:16:38.790Z,27.71
2022-09-10T02:19:06.368Z,27.28
2022-09-10T02:21:33.863Z,27.26
2022-09-10T02:24:08.971Z,27.57
2022-09-10T02:26:39.582Z,27.86
2022-09-10T02:29:08.270Z,27.71
2022-09-10T02:31:35.710Z,28.27
2022-09-10T02:34:05.192Z,28.42
2022-09-10T02:36:32.303Z,28.45
2022-09-10T02:39:00.302Z,28.70
2022-09-10T02:41:28.603Z,28.80
2022-09-10T02:43:55.461Z,28.96
2022-09-10T02:46:22.164Z,28.80
2022-09-10T02:48:48.821Z,28.76
2022-09-10T02:51:15.690Z,28.57
2022-09-10T02:53:43.234Z,28.70
2022-09-10T02:56:10.074Z,28.50
2022-09-10T02:58:37.248Z,28.71
2022-09-10T03:01:10.689Z,28.65
2022-09-10T03:03:39.096Z,28.61
2022-09-10T03:06:06.093Z,28.78
2022-09-10T03:08:32.825Z,28.91
2022-09-10T03:10:59.966Z,28.91
2022-09-10T03:13:28.281Z,28.67
2022-09-10T03:16:04.002Z,28.80
2022-09-10T03:18:33.738Z,28.85
2022-09-10T03:21:15.096Z,28.64
2022-09-10T03:23:43.608Z,28.33
2022-09-10T03:26:11.617Z,28.39
2022-09-10T03:28:38.551Z,28.60
2022-09-10T03:31:08.082Z,28.43
2022-09-10T03:33:40.958Z,28.39
2022-09-10T03:36:09.572Z,28.26
2022-09-10T03:38:36.400Z,28.29
2022-09-10T03:41:03.032Z,28.11
2022-09-10T03:43:31.047Z,27.88
2022-09-10T03:45:58.465Z,28.21
2022-09-10T03:48:25.121Z,28.29
2022-09-10T03:50:52.021Z,28.16
2022-09-10T03:53:19.373Z,28.25
2022-09-10T03:55:47.846Z,28.30
2022-09-10T03:58:17.758Z,28.09
2022-09-10T04:00:46.309Z,28.01
2022-09-10T04:03:14.450Z,27.96
2022-09-10T04:05:45.154Z,28.07
2022-09-10T04:08:14.008Z,28.04
2022-09-10T04:10:42.459Z,28.14
2022-09-10T04:13:09.338Z,27.74
2022-09-10T04:15:38.013Z,27.83
2022-09-10T04:18:06.071Z,27.77
2022-09-10T04:20:33.422Z,27.70
2022-09-10T04:23:07.091Z,28.16
2022-09-10T04:25:36.054Z,27.85
2022-09-10T04:28:03.254Z,28.08
2022-09-10T04:30:30.991Z,27.88
2022-09-10T04:32:57.618Z,28.24
2022-09-10T04:35:24.347Z,27.94
2022-09-10T04:37:50.913Z,27.90
2022-09-10T04:40:17.636Z,28.46
2022-09-10T04:42:44.170Z,28.08
2022-09-10T04:45:11.976Z,28.17
2022-09-10T04:47:38.868Z,27.93
2022-09-10T04:50:07.259Z,28.48
2022-09-10T04:52:34.320Z,28.03
2022-09-10T04:55:00.869Z,28.44
2022-09-10T04:57:27.945Z,28.37
2022-09-10T04:59:54.542Z,28.52
2022-09-10T05:02:21.906Z,28.53
2022-09-10T05:04:48.543Z,28.46
2022-09-10T05:07:15.177Z,28.47
2022-09-10T05:09:42.155Z,28.47
2022-09-10T05:12:08.673Z,28.44
2022-09-10T05:14:35.201Z,28.37
2022-09-10T05:17:03.221Z,28.00
2022-09-10T05:19:30.547Z,28.22
2022-09-10T05:22:02.962Z,28.27
2022-09-10T05:24:34.366Z,28.72
2022-09-10T05:27:03.406Z,28.50
2022-09-10T05:29:30.130Z,28.29
2022-09-10T05:31:57.903Z,28.58
2022-09-10T05:34:25.462Z,28.45
2022-09-10T05:41:43.530Z,28.59
2022-09-10T05:44:10.598Z,28.42
2022-09-10T05:46:37.881Z,28.23
2022-09-10T05:49:12.522Z,28.60
2022-09-10T05:51:39.610Z,28.62
2022-09-10T05:54:08.132Z,28.80
2022-09-10T05:56:35.267Z,28.91
2022-09-10T05:59:03.932Z,29.11
2022-09-10T06:01:32.057Z,29.11
2022-09-10T06:03:59.545Z,29.41
2022-09-10T06:06:28.288Z,29.10
2022-09-10T06:09:04.374Z,29.51
2022-09-10T06:11:43.985Z,29.58
2022-09-10T06:14:11.271Z,29.50
2022-09-10T06:16:37.902Z,29.46
2022-09-10T06:19:06.262Z,29.49
2022-09-10T06:21:34.527Z,29.64
2022-09-10T06:24:02.011Z,29.64
2022-09-10T06:26:32.786Z,29.58
2022-09-10T06:29:05.088Z,29.79
2022-09-10T06:31:34.669Z,29.47
2022-09-10T06:34:02.056Z,29.92
2022-09-10T06:36:30.281Z,30.12
2022-09-10T06:38:57.962Z,30.05
2022-09-10T06:41:25.346Z,29.64
2022-09-10T06:43:58.943Z,29.04
2022-09-10T06:49:25.282Z,29.03
2022-09-10T06:51:52.345Z,28.44
2022-09-10T06:54:19.317Z,29.02
2022-09-10T06:56:49.012Z,28.85
2022-09-10T06:59:16.945Z,29.09
2022-09-10T07:01:47.631Z,28.89
2022-09-10T07:04:15.297Z,28.96
2022-09-10T07:06:42.868Z,29.23
2022-09-10T07:09:14.301Z,29.44
2022-09-10T07:11:58.123Z,29.28
2022-09-10T07:14:25.429Z,29.05
2022-09-10T07:16:53.373Z,29.10
2022-09-10T07:19:22.909Z,29.12
2022-09-10T07:21:50.070Z,29.15
2022-09-10T07:24:17.046Z,29.02
2022-09-10T07:26:57.646Z,28.71
2022-09-10T07:29:24.435Z,28.46
2022-09-10T07:31:52.477Z,28.59
2022-09-10T07:34:23.038Z,28.91
2022-09-10T07:36:50.669Z,29.04
2022-09-10T07:39:22.325Z,29.34
2022-09-10T07:41:52.231Z,28.94
2022-09-10T07:44:21.423Z,28.84
2022-09-10T07:46:48.254Z,29.15
2022-09-10T07:49:16.721Z,29.65
2022-09-10T07:51:47.085Z,30.01
2022-09-10T07:54:17.016Z,30.52
2022-09-10T07:56:49.007Z,30.85
2022-09-10T07:59:16.037Z,30.82
2022-09-10T08:01:57.429Z,30.13
2022-09-10T08:04:24.693Z,30.31
2022-09-10T08:06:52.679Z,30.08
2022-09-10T08:09:21.847Z,30.44
2022-09-10T08:11:53.527Z,30.38
2022-09-10T08:14:22.664Z,30.17
2022-09-10T08:16:52.513Z,30.65
2022-09-10T08:19:19.936Z,30.73
2022-09-10T08:21:47.569Z,30.82
2022-09-10T08:24:19.982Z,30.97
2022-09-10T08:26:49.598Z,32.32
2022-09-10T08:29:16.822Z,32.70
2022-09-10T08:31:44.518Z,33.71
2022-09-10T08:34:26.306Z,34.77
2022-09-10T08:37:01.985Z,35.77
2022-09-10T08:39:32.820Z,36.58
2022-09-10T08:42:09.232Z,37.88
2022-09-10T08:44:58.536Z,37.97
2022-09-10T08:47:50.227Z,37.85
2022-09-10T08:50:22.662Z,38.90
2022-09-10T08:52:57.650Z,38.89
2022-09-10T08:55:32.027Z,38.24
2022-09-10T08:58:20.780Z,37.45
2022-09-10T09:00:54.510Z,37.05
2022-09-10T09:03:40.282Z,37.05
2022-09-10T09:06:16.747Z,37.14
2022-09-10T09:08:48.704Z,37.15
2022-09-10T09:11:47.562Z,37.15
2022-09-10T09:14:25.393Z,36.65
2022-09-10T09:17:24.380Z,36.97
2022-09-10T09:20:05.950Z,35.89
2022-09-10T09:22:40.162Z,36.01
2022-09-10T09:25:32.737Z,36.05
2022-09-10T09:28:03.234Z,35.95
2022-09-10T09:30:42.396Z,35.95
2022-09-10T09:33:16.284Z,35.77
2022-09-10T09:36:04.823Z,36.17
2022-09-10T09:38:43.303Z,36.00
2022-09-10T09:41:24.632Z,36.49
2022-09-10T09:44:02.473Z,36.54
2022-09-10T09:46:30.288Z,36.78
2022-09-10T09:49:01.933Z,36.73
2022-09-10T09:51:35.711Z,35.64
2022-09-10T09:56:59.004Z,35.69
2022-09-10T09:59:27.742Z,35.80
2022-09-10T10:02:21.516Z,36.14
2022-09-10T10:05:23.078Z,36.38
2022-09-10T10:07:50.702Z,36.35
2022-09-10T10:10:26.144Z,36.20
2022-09-10T10:12:54.481Z,36.35
2022-09-10T10:15:36.582Z,36.43
2022-09-10T10:18:21.421Z,36.46
2022-09-10T10:20:49.808Z,36.60
2022-09-10T10:23:36.393Z,36.59
2022-09-10T10:26:20.262Z,36.48
2022-09-10T10:29:00.509Z,36.60
2022-09-10T10:31:34.693Z,36.79
2022-09-10T10:34:16.642Z,37.01
2022-09-10T10:36:58.098Z,37.14
2022-09-10T10:39:40.892Z,37.36
2022-09-10T10:42:39.092Z,36.89
2022-09-10T10:45:26.583Z,36.43
2022-09-10T10:48:28.823Z,36.52
2022-09-10T10:51:17.974Z,36.74
2022-09-10T10:54:21.814Z,36.59
2022-09-10T10:56:59.711Z,36.81
2022-09-10T10:59:45.315Z,36.95
2022-09-10T11:02:32.556Z,36.88
2022-09-10T11:05:05.078Z,37.17
2022-09-10T11:07:40.932Z,37.11
2022-09-10T11:10:34.558Z,37.53
2022-09-10T11:13:16.506Z,37.22
2022-09-10T11:16:14.913Z,36.92
2022-09-10T11:18:51.879Z,37.09
2022-09-10T11:21:39.926Z,37.45
2022-09-10T11:24:17.081Z,37.92
2022-09-10T11:26:50.428Z,38.61
2022-09-10T11:29:22.922Z,38.62
2022-09-10T11:31:57.502Z,38.56
2022-09-10T11:34:47.766Z,38.14
2022-09-10T11:37:20.286Z,37.74
2022-09-10T11:39:50.248Z,37.98
2022-09-10T11:42:33.961Z,37.89
2022-09-10T11:45:00.430Z,37.76
2022-09-10T11:47:35.144Z,37.53
2022-09-10T11:50:10.603Z,37.74
2022-09-10T11:52:38.114Z,37.60
2022-09-10T11:55:08.405Z,38.05
2022-09-10T11:58:11.472Z,37.95
2022-09-10T12:01:04.787Z,37.76
2022-09-10T12:03:58.415Z,37.83
2022-09-10T12:07:02.262Z,37.66
2022-09-10T12:09:35.170Z,37.41
2022-09-10T12:12:13.937Z,37.89
2022-09-10T12:14:41.326Z,38.07
2022-09-10T12:17:18.402Z,38.58
2022-09-10T12:19:52.106Z,38.41
2022-09-10T12:22:35.606Z,39.06
2022-09-10T12:25:02.958Z,38.26
2022-09-10T12:27:50.244Z,38.76
2022-09-10T12:30:27.416Z,38.95
2022-09-10T12:33:00.291Z,39.40
2022-09-10T12:35:30.288Z,38.98
2022-09-10T12:38:34.402Z,38.50
2022-09-10T12:41:02.103Z,38.79
2022-09-10T12:43:40.818Z,38.48
2022-09-10T12:46:07.686Z,38.64
2022-09-10T12:48:39.031Z,38.29
2022-09-10T12:51:26.112Z,39.00
2022-09-10T12:54:04.531Z,39.35
2022-09-10T12:57:08.943Z,39.95
2022-09-10T12:59:55.303Z,39.52
2022-09-10T13:02:32.506Z,39.52
2022-09-10T13:05:06.472Z,39.54
2022-09-10T13:07:38.587Z,38.61
2022-09-10T13:10:21.547Z,38.44
2022-09-10T13:12:55.087Z,38.51
2022-09-10T13:15:24.848Z,38.85
2022-09-10T13:17:51.388Z,39.20
2022-09-10T13:20:20.839Z,39.29
2022-09-10T13:23:19.159Z,38.63
2022-09-10T13:25:47.609Z,39.09
2022-09-10T13:28:29.142Z,38.38
2022-09-10T13:31:13.248Z,38.53
2022-09-10T13:33:54.625Z,38.80
2022-09-10T13:36:54.724Z,39.13
2022-09-10T13:39:51.000Z,39.43
2022-09-10T13:42:56.999Z,38.71
2022-09-10T13:45:48.814Z,38.21
2022-09-10T13:48:25.690Z,38.49
2022-09-10T13:51:24.108Z,38.37
2022-09-10T13:53:53.041Z,38.19
2022-09-10T13:56:25.008Z,38.34
2022-09-10T13:58:56.279Z,38.30
2022-09-10T14:01:50.475Z,38.41
2022-09-10T14:04:41.874Z,38.34
2022-09-10T14:07:21.167Z,38.49
2022-09-10T14:09:56.694Z,38.27
2022-09-10T14:12:27.952Z,38.36
2022-09-10T14:14:59.029Z,38.22
2022-09-10T14:17:34.065Z,38.16
2022-09-10T14:20:05.424Z,37.77
2022-09-10T14:22:32.430Z,37.63
2022-09-10T14:25:04.036Z,37.81
2022-09-10T14:27:32.677Z,37.93
2022-09-10T14:30:21.064Z,38.08
2022-09-10T14:32:47.809Z,37.99
2022-09-10T14:35:36.152Z,38.02
2022-09-10T14:38:07.206Z,38.12
2022-09-10T14:40:37.697Z,38.25
2022-09-10T14:43:31.211Z,38.27
2022-09-10T14:45:58.441Z,38.07
2022-09-10T14:49:07.960Z,37.81
2022-09-10T14:51:34.476Z,37.95
2022-09-10T14:54:01.713Z,37.82
2022-09-10T14:56:33.350Z,37.73
2022-09-10T14:59:03.514Z,37.02
2022-09-10T15:01:31.639Z,37.03
2022-09-10T15:03:59.782Z,36.60
2022-09-10T15:06:26.976Z,37.01
2022-09-10T15:08:56.047Z,37.33
2022-09-10T15:11:25.307Z,37.52
2022-09-10T15:13:52.594Z,38.01
2022-09-10T15:16:19.145Z,38.16
2022-09-10T15:18:45.646Z,38.04
2022-09-10T15:21:14.911Z,38.13
2022-09-10T15:23:42.032Z,38.12
2022-09-10T15:26:12.564Z,38.08
2022-09-10T15:28:39.315Z,37.71
2022-09-10T15:31:06.456Z,37.34
2022-09-10T15:33:33.409Z,37.15
2022-09-10T15:36:00.357Z,37.01
2022-09-10T15:38:27.014Z,37.01
2022-09-10T15:41:05.566Z,36.71
2022-09-10T15:43:37.069Z,36.26
2022-09-10T15:46:03.667Z,36.36
2022-09-10T15:48:33.393Z,36.47
2022-09-10T15:51:08.958Z,35.92
2022-09-10T15:53:35.882Z,35.38
2022-09-10T15:56:04.377Z,35.29
2022-09-10T15:58:31.307Z,35.42
2022-09-10T16:01:11.697Z,35.52
2022-09-10T16:03:44.251Z,35.88
2022-09-10T16:06:10.946Z,35.37
2022-09-10T16:08:37.791Z,35.34
2022-09-10T16:11:09.767Z,35.11
2022-09-10T16:13:39.080Z,35.35
2022-09-10T16:16:09.226Z,34.89
2022-09-10T16:18:36.607Z,33.93
2022-09-10T16:21:15.448Z,34.00
2022-09-10T16:23:43.013Z,33.97
2022-09-10T16:26:15.710Z,33.37
2022-09-10T16:28:48.630Z,32.50
2022-09-10T16:31:20.743Z,31.41
2022-09-10T16:33:48.386Z,31.51
2022-09-10T16:36:17.461Z,31.18
2022-09-10T16:38:44.145Z,31.31
2022-09-10T16:41:13.167Z,31.74
2022-09-10T16:43:41.490Z,31.46
2022-09-10T16:46:11.133Z,31.55
2022-09-10T16:48:40.099Z,31.48
2022-09-10T16:51:13.205Z,31.94
2022-09-10T16:53:41.001Z,32.33
2022-09-10T16:56:09.963Z,32.05
2022-09-10T16:58:37.022Z,31.57
2022-09-10T17:01:06.122Z,31.26
2022-09-10T17:03:33.090Z,30.97
2022-09-10T17:06:00.034Z,31.01
2022-09-10T17:08:29.060Z,31.45
2022-09-10T17:10:56.664Z,31.32
2022-09-10T17:13:23.665Z,31.08
2022-09-10T17:15:50.641Z,30.73
2022-09-10T17:18:17.146Z,31.07
2022-09-10T17:20:44.160Z,31.20
2022-09-10T17:23:13.332Z,31.20
2022-09-10T17:25:39.822Z,31.68
2022-09-10T17:28:06.586Z,31.58
2022-09-10T17:30:33.239Z,31.54
2022-09-10T17:32:59.757Z,31.36
2022-09-10T17:35:26.591Z,31.47
2022-09-10T17:37:53.389Z,31.81
2022-09-10T17:40:20.735Z,31.75
2022-09-10T17:42:49.089Z,32.22
2022-09-10T17:45:16.131Z,31.78
2022-09-10T17:47:42.629Z,31.71
2022-09-10T17:50:09.326Z,31.67
2022-09-10T17:52:35.842Z,31.54
2022-09-10T17:55:02.679Z,31.50
2022-09-10T17:57:30.091Z,31.72
2022-09-10T17:59:56.589Z,31.22
2022-09-10T18:02:23.233Z,31.35
2022-09-10T18:04:50.210Z,31.80
2022-09-10T18:07:16.727Z,31.48
2022-09-10T18:09:43.247Z,31.71
2022-09-10T18:12:09.785Z,30.93
2022-09-10T18:14:38.341Z,31.24
2022-09-10T18:17:04.894Z,31.85
2022-09-10T18:19:33.037Z,32.24
2022-09-10T18:22:01.403Z,32.42
2022-09-10T18:24:28.352Z,32.51
2022-09-10T18:26:55.017Z,32.06
2022-09-10T18:29:29.870Z,31.76
2022-09-10T18:32:00.557Z,32.18
2022-09-10T18:34:29.519Z,32.26
2022-09-10T18:36:58.976Z,31.94
2022-09-10T18:39:27.291Z,31.30
2022-09-10T18:41:54.959Z,31.55
2022-09-10T18:44:27.400Z,31.86
2022-09-10T18:46:54.206Z,30.97
2022-09-10T18:49:23.346Z,31.28
2022-09-10T18:51:51.035Z,31.44
2022-09-10T18:54:18.535Z,31.13
2022-09-10T18:56:46.940Z,31.00
2022-09-10T18:59:16.623Z,31.23
2022-09-10T19:01:44.305Z,31.51
2022-09-10T19:04:13.706Z,31.55
2022-09-10T19:06:43.331Z,31.26
2022-09-10T19:09:12.669Z,31.59
2022-09-10T19:11:41.829Z,31.81
2022-09-10T19:14:16.140Z,32.02
2022-09-10T19:16:43.006Z,32.07
2022-09-10T19:19:18.251Z,31.69
2022-09-10T19:21:46.771Z,31.91
2022-09-10T19:24:15.018Z,31.38
2022-09-10T19:26:42.007Z,31.19
2022-09-10T19:29:11.737Z,30.85
2022-09-10T19:31:39.723Z,31.25
2022-09-10T19:34:08.208Z,31.32
2022-09-10T19:36:35.825Z,31.62
2022-09-10T19:39:08.867Z,30.91
2022-09-10T19:41:38.990Z,31.16
2022-09-10T19:44:07.486Z,31.45
2022-09-10T19:46:36.463Z,31.43
2022-09-10T19:49:05.924Z,31.64
2022-09-10T19:51:35.302Z,31.66
2022-09-10T19:54:02.732Z,31.80
2022-09-10T19:56:32.797Z,31.76
2022-09-10T19:59:02.394Z,31.87
2022-09-10T20:01:31.391Z,31.82
2022-09-10T20:04:00.967Z,32.03
2022-09-10T20:06:29.828Z,31.93
2022-09-10T20:08:57.100Z,31.86
2022-09-10T20:11:27.574Z,31.87
2022-09-10T20:14:03.903Z,31.87
2022-09-10T20:16:31.308Z,31.90
2022-09-10T20:18:57.884Z,31.87
2022-09-10T20:21:27.779Z,31.85
2022-09-10T20:23:58.410Z,31.95
2022-09-10T20:26:33.709Z,31.88
2022-09-10T20:29:03.882Z,31.96
2022-09-10T20:31:32.266Z,31.83
2022-09-10T20:34:00.824Z,31.59
2022-09-10T20:36:28.425Z,31.64
2022-09-10T20:38:56.021Z,31.34
2022-09-10T20:41:23.400Z,31.13
2022-09-10T20:43:51.696Z,31.34
2022-09-10T20:46:20.395Z,31.28
2022-09-10T20:48:49.189Z,31.32
2022-09-10T20:51:20.531Z,31.31
2022-09-10T20:53:48.358Z,31.27
2022-09-10T20:56:17.736Z,31.32
2022-09-10T20:58:45.901Z,31.29
2022-09-10T21:01:18.789Z,31.23
2022-09-10T21:03:47.855Z,31.09
2022-09-10T21:06:19.521Z,31.11
2022-09-10T21:08:47.619Z,31.19
2022-09-10T21:11:16.980Z,31.07
2022-09-10T21:13:46.374Z,30.85
2022-09-10T21:16:15.662Z,30.90
2022-09-10T21:18:48.808Z,30.81
2022-09-10T21:21:21.185Z,30.93
2022-09-10T21:23:53.463Z,30.83
2022-09-10T21:26:23.203Z,30.62
2022-09-10T21:28:56.718Z,30.30
2022-09-10T21:31:24.316Z,30.22
2022-09-10T21:33:51.264Z,30.26
2022-09-10T21:36:19.220Z,29.80
2022-09-10T21:38:56.726Z,29.79
2022-09-10T21:41:27.927Z,29.89
2022-09-10T21:43:54.755Z,29.42
2022-09-10T21:46:21.286Z,29.40
2022-09-10T21:48:48.174Z,29.46
2022-09-10T21:51:16.695Z,29.55
2022-09-10T21:53:44.257Z,29.58
2022-09-10T21:56:16.690Z,29.68
2022-09-10T21:58:45.346Z,29.71
2022-09-10T22:01:14.589Z,29.66
2022-09-10T22:03:41.786Z,29.64
2022-09-10T22:06:10.005Z,29.75
2022-09-10T22:08:38.674Z,29.84
2022-09-10T22:11:14.442Z,29.77
2022-09-10T22:13:42.220Z,29.82
2022-09-10T22:16:10.639Z,29.77
2022-09-10T22:18:37.944Z,29.79
2022-09-10T22:21:05.448Z,29.81
2022-09-10T22:23:34.677Z,29.81
2022-09-10T22:26:11.087Z,29.77
2022-09-10T22:28:38.910Z,29.55
2022-09-10T22:31:20.799Z,29.23
2022-09-10T22:33:53.238Z,29.27
2022-09-10T22:36:30.838Z,29.21
2022-09-10T22:39:00.302Z,29.23
2022-09-10T22:41:28.949Z,29.09
2022-09-10T22:43:55.541Z,28.87
2022-09-10T22:46:24.038Z,28.53
2022-09-10T22:48:50.805Z,28.37
2022-09-10T22:51:20.083Z,28.44
2022-09-10T22:53:47.071Z,28.34
2022-09-10T22:56:15.793Z,28.33
2022-09-10T22:58:42.685Z,28.12
2022-09-10T23:01:12.401Z,27.82
2022-09-10T23:03:39.938Z,27.91
2022-09-10T23:06:19.189Z,27.96
2022-09-10T23:08:49.138Z,27.45
2022-09-10T23:11:20.926Z,27.56
2022-09-10T23:13:50.392Z,27.46
2022-09-10T23:16:20.000Z,27.47
2022-09-10T23:18:50.502Z,27.04
2022-09-10T23:21:22.998Z,27.02
2022-09-10T23:23:52.786Z,27.07
2022-09-10T23:26:19.805Z,26.87
2022-09-10T23:28:46.798Z,27.34
2022-09-10T23:31:23.779Z,27.21
2022-09-10T23:34:07.826Z,27.35
2022-09-10T23:36:37.098Z,26.91
2022-09-10T23:39:09.314Z,26.95
2022-09-10T23:41:36.827Z,27.12
2022-09-10T23:44:03.755Z,26.71
2022-09-10T23:46:30.955Z,26.67
2022-09-10T23:48:57.950Z,26.94
2022-09-10T23:51:24.496Z,27.12
2022-09-10T23:53:51.041Z,26.80
2022-09-10T23:56:19.722Z,26.94
2022-09-10T23:58:47.782Z,26.73
